createdAt,value
2023-03-02T00:01:12.288Z,99.90
2023-03-02T00:03:41.954Z,99.90
2023-03-02T00:06:10.454Z,99.90
2023-03-02T00:08:39.540Z,99.90
2023-03-02T00:11:07.446Z,99.90
2023-03-02T00:13:37.956Z,99.90
2023-03-02T00:16:06.520Z,99.90
2023-03-02T00:18:35.683Z,99.90
2023-03-02T00:21:03.486Z,99.90
2023-03-02T00:23:31.252Z,99.90
2023-03-02T00:25:59.048Z,99.90
2023-03-02T00:28:27.300Z,99.90
2023-03-02T00:30:55.237Z,99.90
2023-03-02T00:33:23.133Z,99.90
2023-03-02T00:35:52.432Z,99.90
2023-03-02T00:38:20.276Z,99.90
2023-03-02T00:40:48.975Z,99.90
2023-03-02T00:43:17.508Z,99.90
2023-03-02T00:45:45.364Z,99.90
2023-03-02T00:48:13.262Z,99.90
2023-03-02T00:50:41.887Z,99.90
2023-03-02T00:53:11.415Z,99.90
2023-03-02T00:55:39.500Z,99.90
2023-03-02T00:58:07.302Z,99.90
2023-03-02T01:00:35.629Z,99.90
2023-03-02T01:03:06.906Z,99.90
2023-03-02T01:05:37.909Z,99.90
2023-03-02T01:08:06.204Z,99.90
2023-03-02T01:10:35.998Z,99.90
2023-03-02T01:13:03.875Z,99.90
2023-03-02T01:15:32.905Z,99.90
2023-03-02T01:18:01.384Z,99.90
2023-03-02T01:20:29.549Z,99.90
2023-03-02T01:22:57.848Z,99.90
2023-03-02T01:25:25.686Z,99.90
2023-03-02T01:27:55.156Z,99.90
2023-03-02T01:30:23.053Z,99.90
2023-03-02T01:32:50.869Z,99.90
2023-03-02T01:35:18.985Z,99.90
2023-03-02T01:37:46.853Z,99.90
2023-03-02T01:40:15.645Z,99.90
2023-03-02T01:42:52.023Z,99.90
2023-03-02T01:45:47.795Z,99.90
2023-03-02T01:48:27.066Z,99.90
2023-03-02T01:50:56.113Z,99.90
2023-03-02T01:53:26.979Z,99.90
2023-03-02T01:55:55.215Z,99.90
2023-03-02T01:58:23.442Z,99.90
2023-03-02T02:00:55.711Z,99.90
2023-03-02T02:03:27.246Z,99.90
2023-03-02T02:06:04.926Z,99.90
2023-03-02T02:08:33.692Z,99.90
2023-03-02T02:11:02.067Z,99.90
2023-03-02T02:13:29.909Z,99.90
2023-03-02T02:15:59.032Z,99.90
2023-03-02T02:18:27.961Z,99.90
2023-03-02T02:20:56.401Z,99.90
2023-03-02T02:23:30.276Z,99.90
2023-03-02T02:26:09.438Z,99.90
2023-03-02T02:28:41.687Z,99.90
2023-03-02T02:31:14.995Z,99.90
2023-03-02T02:33:47.552Z,99.90
2023-03-02T02:36:19.716Z,99.90
2023-03-02T02:38:52.677Z,99.90
2023-03-02T02:41:27.038Z,99.90
2023-03-02T02:43:55.384Z,99.90
2023-03-02T02:46:23.552Z,99.90
2023-03-02T02:48:51.422Z,99.90
2023-03-02T02:51:23.757Z,99.90
2023-03-02T02:53:58.585Z,99.90
2023-03-02T02:56:33.759Z,99.90
2023-03-02T02:59:05.708Z,99.90
2023-03-02T03:01:35.094Z,99.90
2023-03-02T03:04:05.469Z,99.90
2023-03-02T03:06:42.162Z,99.90
2023-03-02T03:09:12.437Z,99.90
2023-03-02T03:11:49.545Z,99.90
2023-03-02T03:14:20.591Z,99.90
2023-03-02T03:16:52.124Z,99.90
2023-03-02T03:19:23.048Z,99.90
2023-03-02T03:21:54.657Z,99.90
2023-03-02T03:24:24.510Z,99.90
2023-03-02T03:26:55.538Z,99.90
2023-03-02T03:29:26.197Z,99.90
2023-03-02T03:31:58.972Z,99.90
2023-03-02T03:34:27.634Z,99.90
2023-03-02T03:37:01.584Z,99.90
2023-03-02T03:39:32.861Z,99.90
2023-03-02T03:42:02.189Z,99.90
2023-03-02T03:44:30.322Z,99.90
2023-03-02T03:46:58.276Z,99.90
2023-03-02T03:49:26.684Z,99.90
2023-03-02T03:51:55.564Z,99.90
2023-03-02T03:54:23.914Z,99.90
2023-03-02T03:56:52.134Z,99.90
2023-03-02T03:59:22.938Z,99.90
2023-03-02T04:01:59.939Z,99.90
2023-03-02T04:04:34.622Z,99.90
2023-03-02T04:07:07.525Z,99.90
2023-03-02T04:09:37.969Z,99.90
2023-03-02T04:12:09.432Z,99.90
2023-03-02T04:14:40.321Z,99.90
2023-03-02T04:17:08.409Z,99.90
2023-03-02T04:19:40.938Z,99.90
2023-03-02T04:22:09.947Z,99.90
2023-03-02T04:24:37.736Z,99.90
2023-03-02T04:27:05.945Z,99.90
2023-03-02T04:29:36.052Z,99.90
2023-03-02T04:32:07.669Z,99.90
2023-03-02T04:34:38.414Z,99.90
2023-03-02T04:37:06.335Z,99.90
2023-03-02T04:39:34.209Z,99.90
2023-03-02T04:42:02.016Z,99.90
2023-03-02T04:44:29.818Z,99.90
2023-03-02T04:46:57.750Z,99.90
2023-03-02T04:49:26.923Z,99.90
2023-03-02T04:51:54.765Z,99.90
2023-03-02T04:54:25.911Z,99.90
2023-03-02T04:56:54.773Z,99.90
2023-03-02T04:59:25.906Z,99.90
2023-03-02T05:01:54.363Z,99.90
2023-03-02T05:04:22.376Z,99.90
2023-03-02T05:06:52.511Z,99.90
2023-03-02T05:09:21.175Z,99.90
2023-03-02T05:11:48.976Z,99.90
2023-03-02T05:14:16.791Z,99.90
2023-03-02T05:16:44.581Z,99.90
2023-03-02T05:19:13.415Z,99.90
2023-03-02T05:21:41.732Z,99.90
2023-03-02T05:24:11.802Z,99.90
2023-03-02T05:26:40.415Z,99.90
2023-03-02T05:29:08.196Z,99.90
2023-03-02T05:31:38.523Z,99.90
2023-03-02T05:34:08.901Z,99.90
2023-03-02T05:36:37.097Z,99.90
2023-03-02T05:39:06.191Z,99.90
2023-03-02T05:41:35.752Z,99.90
2023-03-02T05:44:03.636Z,99.90
2023-03-02T05:46:31.829Z,99.90
2023-03-02T05:48:59.723Z,99.90
2023-03-02T05:51:33.290Z,99.90
2023-03-02T05:54:01.187Z,99.90
2023-03-02T05:56:28.990Z,99.90
2023-03-02T05:58:58.120Z,99.90
2023-03-02T06:01:25.913Z,99.90
2023-03-02T06:03:53.725Z,99.90
2023-03-02T06:06:21.550Z,99.90
2023-03-02T06:08:49.318Z,99.90
2023-03-02T06:11:17.139Z,99.90
2023-03-02T06:13:44.984Z,99.90
2023-03-02T06:16:14.151Z,99.90
2023-03-02T06:18:42.023Z,99.90
2023-03-02T06:21:10.245Z,99.90
2023-03-02T06:23:38.208Z,99.90
2023-03-02T06:26:09.437Z,99.90
2023-03-02T06:28:49.637Z,99.90
2023-03-02T06:31:20.838Z,99.90
2023-03-02T06:33:48.793Z,99.90
2023-03-02T06:36:17.087Z,99.90
2023-03-02T06:38:45.080Z,99.90
2023-03-02T06:41:12.924Z,99.90
2023-03-02T06:43:40.733Z,99.90
2023-03-02T06:46:08.757Z,99.90
2023-03-02T06:48:38.100Z,99.90
2023-03-02T06:51:07.642Z,99.90
2023-03-02T06:53:35.496Z,99.90
2023-03-02T06:56:03.237Z,99.90
2023-03-02T06:58:31.028Z,99.90
2023-03-02T07:00:58.845Z,99.90
2023-03-02T07:03:26.714Z,99.90
2023-03-02T07:05:55.908Z,99.90
2023-03-02T07:08:23.989Z,99.90
2023-03-02T07:10:52.288Z,99.90
2023-03-02T07:13:20.146Z,99.90
2023-03-02T07:15:47.974Z,99.90
2023-03-02T07:18:15.730Z,99.90
2023-03-02T07:20:45.647Z,99.90
2023-03-02T07:23:14.853Z,99.90
2023-03-02T07:25:42.659Z,99.90
2023-03-02T07:28:10.567Z,99.90
2023-03-02T07:30:38.690Z,99.90
2023-03-02T07:33:06.545Z,99.90
2023-03-02T07:35:34.390Z,99.90
2023-03-02T07:38:02.244Z,99.90
2023-03-02T07:40:31.385Z,99.90
2023-03-02T07:42:59.305Z,99.90
2023-03-02T07:45:27.248Z,99.90
2023-03-02T07:47:55.033Z,99.90
2023-03-02T07:50:22.856Z,99.90
2023-03-02T07:52:50.698Z,99.90
2023-03-02T07:55:18.688Z,99.90
2023-03-02T07:57:47.952Z,99.90
2023-03-02T08:00:17.677Z,99.90
2023-03-02T08:02:45.769Z,99.90
2023-03-02T08:05:15.658Z,99.90
2023-03-02T08:07:44.057Z,99.90
2023-03-02T08:10:13.203Z,99.90
2023-03-02T08:12:42.825Z,99.90
2023-03-02T08:15:13.210Z,99.90
2023-03-02T08:17:41.198Z,99.90
2023-03-02T08:20:10.009Z,99.90
2023-03-02T08:22:37.911Z,99.90
2023-03-02T08:25:07.485Z,99.90
2023-03-02T08:27:35.359Z,99.90
2023-03-02T08:30:03.353Z,99.90
2023-03-02T08:32:33.633Z,99.90
2023-03-02T08:35:01.688Z,99.90
2023-03-02T08:37:29.471Z,99.90
2023-03-02T08:39:58.705Z,98.90
2023-03-02T08:42:26.785Z,98.20
2023-03-02T08:44:54.832Z,97.70
2023-03-02T08:47:22.686Z,97.40
2023-03-02T08:49:51.813Z,96.90
2023-03-02T09:00:36.096Z,91.00
2023-03-02T09:19:44.469Z,86.10
2023-03-02T09:22:23.763Z,84.80
2023-03-02T09:24:51.687Z,85.00
2023-03-02T09:27:19.551Z,85.00
2023-03-02T09:29:47.370Z,85.40
2023-03-02T09:32:16.585Z,86.30
2023-03-02T09:34:44.496Z,86.90
2023-03-02T09:37:12.298Z,82.40
2023-03-02T09:39:40.147Z,80.10
2023-03-02T09:42:43.646Z,78.50
2023-03-02T09:45:30.695Z,78.90
2023-03-02T09:48:12.054Z,78.10
2023-03-02T09:50:47.329Z,77.50
2023-03-02T09:53:41.802Z,77.30
2023-03-02T09:56:16.541Z,74.80
2023-03-02T09:58:49.625Z,73.40
2023-03-02T10:01:30.285Z,73.70
2023-03-02T10:04:09.177Z,73.80
2023-03-02T10:06:37.036Z,73.30
2023-03-02T10:09:05.012Z,71.40
2023-03-02T10:11:40.401Z,71.20
2023-03-02T10:14:13.647Z,71.30
2023-03-02T10:16:49.318Z,70.10
2023-03-02T10:19:25.971Z,71.40
2023-03-02T10:22:01.510Z,71.20
2023-03-02T10:24:36.624Z,71.10
2023-03-02T10:27:16.974Z,70.90
2023-03-02T10:29:50.921Z,70.50
2023-03-02T10:32:22.913Z,70.70
2023-03-02T10:34:53.421Z,67.70
2023-03-02T10:37:25.363Z,66.60
2023-03-02T10:39:53.852Z,67.50
2023-03-02T10:42:26.938Z,67.80
2023-03-02T10:44:57.981Z,68.00
2023-03-02T10:47:27.647Z,68.00
2023-03-02T10:49:57.848Z,66.10
2023-03-02T10:52:27.684Z,66.00
2023-03-02T10:55:06.236Z,65.80
2023-03-02T10:57:39.170Z,66.00
2023-03-02T11:00:18.402Z,66.10
2023-03-02T11:02:51.266Z,65.20
2023-03-02T11:05:32.047Z,65.30
2023-03-02T11:08:01.987Z,64.40
2023-03-02T11:10:32.280Z,63.80
2023-03-02T11:13:01.438Z,63.40
2023-03-02T11:15:36.549Z,63.30
2023-03-02T11:18:08.938Z,62.80
2023-03-02T11:20:43.620Z,61.90
2023-03-02T11:23:19.557Z,60.60
2023-03-02T11:25:52.723Z,60.20
2023-03-02T11:28:32.882Z,60.20
2023-03-02T11:31:03.546Z,59.40
2023-03-02T11:33:38.276Z,58.60
2023-03-02T11:36:13.159Z,58.30
2023-03-02T11:38:48.000Z,55.80
2023-03-02T11:41:28.519Z,54.10
2023-03-02T11:44:01.272Z,53.80
2023-03-02T11:46:33.334Z,54.70
2023-03-02T11:49:05.298Z,54.70
2023-03-02T11:51:44.473Z,54.30
2023-03-02T11:54:28.871Z,54.50
2023-03-02T11:56:57.149Z,54.60
2023-03-02T11:59:27.641Z,52.20
2023-03-02T12:01:59.582Z,51.60
2023-03-02T12:04:32.188Z,50.50
2023-03-02T12:07:02.764Z,51.30
2023-03-02T12:09:35.045Z,51.00
2023-03-02T12:12:24.648Z,51.10
2023-03-02T12:14:52.878Z,51.30
2023-03-02T12:17:31.654Z,50.70
2023-03-02T12:20:25.163Z,50.40
2023-03-02T12:22:54.783Z,48.40
2023-03-02T12:25:30.328Z,48.60
2023-03-02T12:27:58.136Z,48.60
2023-03-02T12:30:28.404Z,49.00
2023-03-02T12:33:06.616Z,48.00
2023-03-02T12:35:35.933Z,48.00
2023-03-02T12:38:07.675Z,48.70
2023-03-02T12:40:53.525Z,49.30
2023-03-02T12:43:28.532Z,50.10
2023-03-02T12:46:33.447Z,50.70
2023-03-02T12:49:10.819Z,50.90
2023-03-02T12:51:49.397Z,50.90
2023-03-02T12:54:20.264Z,50.70
2023-03-02T12:56:48.481Z,50.50
2023-03-02T12:59:25.172Z,50.10
2023-03-02T13:01:53.315Z,49.70
2023-03-02T13:04:26.465Z,49.80
2023-03-02T13:06:55.329Z,49.80
2023-03-02T13:09:24.654Z,50.50
2023-03-02T13:11:54.940Z,50.50
2023-03-02T13:14:27.308Z,50.20
2023-03-02T13:16:57.867Z,49.60
2023-03-02T13:19:26.853Z,49.20
2023-03-02T13:21:54.906Z,49.20
2023-03-02T13:24:46.331Z,49.60
2023-03-02T13:27:19.175Z,49.60
2023-03-02T13:29:47.707Z,48.90
2023-03-02T13:32:18.338Z,49.10
2023-03-02T13:34:52.011Z,49.10
2023-03-02T13:37:23.958Z,48.40
2023-03-02T13:40:05.731Z,48.40
2023-03-02T13:42:37.654Z,48.20
2023-03-02T13:45:24.607Z,48.40
2023-03-02T13:47:52.832Z,48.50
2023-03-02T13:50:23.271Z,48.90
2023-03-02T13:52:52.196Z,49.40
2023-03-02T13:55:23.215Z,49.90
2023-03-02T13:57:53.656Z,50.00
2023-03-02T14:00:24.182Z,49.90
2023-03-02T14:02:51.943Z,49.50
2023-03-02T14:05:21.893Z,49.30
2023-03-02T14:07:49.842Z,49.60
2023-03-02T14:10:19.976Z,49.90
2023-03-02T14:12:56.439Z,49.90
2023-03-02T14:15:24.325Z,49.40
2023-03-02T14:17:52.140Z,50.20
2023-03-02T14:20:21.139Z,50.30
2023-03-02T14:22:50.559Z,49.80
2023-03-02T14:25:19.493Z,49.40
2023-03-02T14:27:47.981Z,49.60
2023-03-02T14:30:19.899Z,50.20
2023-03-02T14:32:48.430Z,50.60
2023-03-02T14:35:17.460Z,50.70
2023-03-02T14:37:48.278Z,50.20
2023-03-02T14:40:18.790Z,50.10
2023-03-02T14:42:46.653Z,50.20
2023-03-02T14:45:14.510Z,49.20
2023-03-02T14:47:43.687Z,49.60
2023-03-02T14:50:13.008Z,50.00
2023-03-02T14:52:44.201Z,50.20
2023-03-02T14:55:18.333Z,50.00
2023-03-02T14:57:46.339Z,49.50
2023-03-02T15:00:16.310Z,50.00
2023-03-02T15:02:45.669Z,50.30
2023-03-02T15:05:13.738Z,50.50
2023-03-02T15:07:41.670Z,50.60
2023-03-02T15:10:13.297Z,50.40
2023-03-02T15:12:41.320Z,50.20
2023-03-02T15:15:10.706Z,50.20
2023-03-02T15:17:39.011Z,50.00
2023-03-02T15:20:13.693Z,50.00
2023-03-02T15:22:41.470Z,50.50
2023-03-02T15:25:10.035Z,50.70
2023-03-02T15:27:38.006Z,50.90
2023-03-02T15:30:06.650Z,51.30
2023-03-02T15:32:34.531Z,51.50
2023-03-02T15:35:03.986Z,50.90
2023-03-02T15:37:33.126Z,50.90
2023-03-02T15:40:01.021Z,51.10
2023-03-02T15:42:29.096Z,51.20
2023-03-02T15:44:57.080Z,51.40
2023-03-02T15:47:25.042Z,51.30
2023-03-02T15:49:52.795Z,51.50
2023-03-02T15:52:21.517Z,51.70
2023-03-02T15:54:50.917Z,51.90
2023-03-02T15:57:18.862Z,51.90
2023-03-02T15:59:46.687Z,52.00
2023-03-02T16:02:15.153Z,52.10
2023-03-02T16:04:43.017Z,52.30
2023-03-02T16:07:10.842Z,52.30
2023-03-02T16:09:38.838Z,52.60
2023-03-02T16:12:08.151Z,52.80
2023-03-02T16:14:35.987Z,52.90
2023-03-02T16:17:03.906Z,53.30
2023-03-02T16:19:32.269Z,53.40
2023-03-02T16:22:00.289Z,53.60
2023-03-02T16:24:28.190Z,53.80
2023-03-02T16:26:55.985Z,54.00
2023-03-02T16:29:25.157Z,54.10
2023-03-02T16:31:53.104Z,54.30
2023-03-02T16:34:21.173Z,54.50
2023-03-02T16:36:49.002Z,54.80
2023-03-02T16:39:16.834Z,55.20
2023-03-02T16:41:46.147Z,55.40
2023-03-02T16:44:16.087Z,55.50
2023-03-02T16:46:45.356Z,55.70
2023-03-02T16:49:14.930Z,55.90
2023-03-02T16:51:43.470Z,56.20
2023-03-02T16:54:12.010Z,56.50
2023-03-02T16:56:41.740Z,56.70
2023-03-02T16:59:09.575Z,57.40
2023-03-02T17:01:37.451Z,57.30
2023-03-02T17:04:08.121Z,57.60
2023-03-02T17:06:35.947Z,57.90
2023-03-02T17:09:04.695Z,58.30
2023-03-02T17:11:32.972Z,58.70
2023-03-02T17:14:01.336Z,58.90
2023-03-02T17:16:29.557Z,60.80
2023-03-02T17:18:57.870Z,61.20
2023-03-02T17:21:27.666Z,64.20
2023-03-02T17:23:59.013Z,67.00
2023-03-02T17:26:29.535Z,75.20
2023-03-02T17:29:00.949Z,84.80
2023-03-02T17:31:29.166Z,90.20
2023-03-02T17:33:57.550Z,93.20
2023-03-02T17:36:27.089Z,96.00
2023-03-02T17:38:55.252Z,99.10
2023-03-02T17:41:23.509Z,99.90
2023-03-02T17:43:51.962Z,99.90
2023-03-02T17:46:32.634Z,99.90
2023-03-02T17:49:01.567Z,99.90
2023-03-02T17:51:31.161Z,99.90
2023-03-02T17:53:59.125Z,99.90
2023-03-02T17:56:28.321Z,99.90
2023-03-02T17:58:57.650Z,99.90
2023-03-02T18:01:26.074Z,99.90
2023-03-02T18:03:54.119Z,99.90
2023-03-02T18:06:22.119Z,99.90
2023-03-02T18:08:52.587Z,99.90
2023-03-02T18:11:24.380Z,99.90
2023-03-02T18:13:54.763Z,99.90
2023-03-02T18:16:22.987Z,99.90
2023-03-02T18:18:53.494Z,99.90
2023-03-02T18:21:22.434Z,99.90
2023-03-02T18:23:51.894Z,99.90
2023-03-02T18:26:19.714Z,99.90
2023-03-02T18:28:47.600Z,99.90
2023-03-02T18:31:16.685Z,99.90
2023-03-02T18:33:47.345Z,99.90
2023-03-02T18:36:15.440Z,99.90
2023-03-02T18:38:43.674Z,99.90
2023-03-02T18:41:14.692Z,99.90
2023-03-02T18:43:43.459Z,99.90
2023-03-02T18:46:18.917Z,99.90
2023-03-02T18:48:46.792Z,99.90
2023-03-02T18:51:14.910Z,99.90
2023-03-02T18:53:43.243Z,99.90
2023-03-02T18:56:12.883Z,99.90
2023-03-02T18:58:41.292Z,99.90
2023-03-02T19:01:10.124Z,99.90
2023-03-02T19:03:39.177Z,99.90
2023-03-02T19:06:08.756Z,99.90
2023-03-02T19:08:37.259Z,99.90
2023-03-02T19:11:08.190Z,99.90
2023-03-02T19:13:37.412Z,99.90
2023-03-02T19:16:05.988Z,99.90
2023-03-02T19:18:34.345Z,99.90
2023-03-02T19:21:04.269Z,99.90
2023-03-02T19:23:32.558Z,99.90
2023-03-02T19:26:01.518Z,99.90
2023-03-02T19:28:29.890Z,99.90
2023-03-02T19:31:02.687Z,99.90
2023-03-02T19:33:30.535Z,99.90
2023-03-02T19:35:58.500Z,99.90
2023-03-02T19:38:29.077Z,99.90
2023-03-02T19:40:58.131Z,99.90
2023-03-02T19:43:26.601Z,99.90
2023-03-02T19:45:54.503Z,99.90
2023-03-02T19:48:23.624Z,99.90
2023-03-02T19:50:52.838Z,99.90
2023-03-02T19:53:20.638Z,99.90
2023-03-02T19:55:48.879Z,99.90
2023-03-02T19:58:17.510Z,99.90
2023-03-02T20:00:46.435Z,99.90
2023-03-02T20:03:14.267Z,99.90
2023-03-02T20:05:43.408Z,99.90
2023-03-02T20:08:11.698Z,99.90
2023-03-02T20:10:42.385Z,99.90
2023-03-02T20:13:11.370Z,99.90
2023-03-02T20:15:41.853Z,99.90
2023-03-02T20:18:12.938Z,99.90
2023-03-02T20:20:41.189Z,99.90
2023-03-02T20:23:10.402Z,99.90
2023-03-02T20:25:38.597Z,99.90
2023-03-02T20:28:07.165Z,99.90
2023-03-02T20:30:38.090Z,99.90
2023-03-02T20:33:07.269Z,99.90
2023-03-02T20:35:37.748Z,99.90
2023-03-02T20:38:07.974Z,99.90
2023-03-02T20:40:37.784Z,99.90
2023-03-02T20:43:06.244Z,99.90
2023-03-02T20:45:46.504Z,99.90
2023-03-02T20:48:14.901Z,99.90
2023-03-02T20:50:43.410Z,99.90
2023-03-02T20:53:11.843Z,99.90
2023-03-02T20:55:40.958Z,99.90
2023-03-02T20:58:09.685Z,99.90
2023-03-02T21:00:38.992Z,99.90
2023-03-02T21:03:08.366Z,99.90
2023-03-02T21:05:38.160Z,99.90
2023-03-02T21:08:18.380Z,99.90
2023-03-02T21:10:47.884Z,99.90
2023-03-02T21:13:16.189Z,99.90
2023-03-02T21:15:44.128Z,99.90
2023-03-02T21:18:14.083Z,99.90
2023-03-02T21:20:41.873Z,99.90
2023-03-02T21:23:11.082Z,99.90
2023-03-02T21:25:41.865Z,99.90
2023-03-02T21:28:11.859Z,99.90
2023-03-02T21:30:39.667Z,99.90
2023-03-02T21:33:07.733Z,99.90
2023-03-02T21:35:37.041Z,99.90
2023-03-02T21:38:05.762Z,99.90
2023-03-02T21:40:35.955Z,99.90
2023-03-02T21:43:07.547Z,99.90
2023-03-02T21:45:37.170Z,99.90
2023-03-02T21:48:06.044Z,99.90
2023-03-02T21:50:36.713Z,99.90
2023-03-02T21:53:05.228Z,99.90
2023-03-02T21:55:33.711Z,99.90
2023-03-02T21:58:01.690Z,99.90
2023-03-02T22:00:32.453Z,99.90
2023-03-02T22:03:02.553Z,99.90
2023-03-02T22:05:30.469Z,99.90
2023-03-02T22:07:58.533Z,99.90
2023-03-02T22:10:30.721Z,99.90
2023-03-02T22:13:06.888Z,99.90
2023-03-02T22:15:34.670Z,99.90
2023-03-02T22:18:07.351Z,99.90
2023-03-02T22:20:44.404Z,99.90
2023-03-02T22:23:14.366Z,99.90
2023-03-02T22:25:44.335Z,99.90
2023-03-02T22:28:17.556Z,99.90
2023-03-02T22:30:45.796Z,99.90
2023-03-02T22:33:20.425Z,99.90
2023-03-02T22:35:49.327Z,99.90
2023-03-02T22:38:23.823Z,99.90
2023-03-02T22:40:52.195Z,99.90
2023-03-02T22:43:25.515Z,99.90
2023-03-02T22:45:54.248Z,99.90
2023-03-02T22:48:28.761Z,99.90
2023-03-02T22:50:57.267Z,99.90
2023-03-02T22:53:28.952Z,99.90
2023-03-02T22:55:59.281Z,99.90
2023-03-02T22:58:45.316Z,99.90
2023-03-02T23:01:23.965Z,99.90
2023-03-02T23:03:55.333Z,99.90
2023-03-02T23:06:34.629Z,99.90
2023-03-02T23:09:05.038Z,99.90
2023-03-02T23:11:37.475Z,99.90
2023-03-02T23:14:14.889Z,99.90
2023-03-02T23:16:42.674Z,99.90
2023-03-02T23:19:11.791Z,99.90
2023-03-02T23:21:41.931Z,99.90
2023-03-02T23:24:10.141Z,99.90
2023-03-02T23:26:38.122Z,99.90
2023-03-02T23:29:06.638Z,99.90
2023-03-02T23:31:34.674Z,99.90
2023-03-02T23:34:02.586Z,99.90
2023-03-02T23:36:32.060Z,99.90
2023-03-02T23:39:00.076Z,99.90
2023-03-02T23:41:27.865Z,99.90
2023-03-02T23:43:55.882Z,99.90
2023-03-02T23:46:23.908Z,99.90
2023-03-02T23:48:51.845Z,99.90
2023-03-02T23:51:19.709Z,99.90
2023-03-02T23:53:48.802Z,99.90
2023-03-02T23:56:16.666Z,99.90
2023-03-02T23:58:44.527Z,99.90
